Portada
METAR-TAF:

METAR-TAF

Aeroports :

Gènova, Itàlia

latitud: 44-25N, longitud: 008-51E, altitud: 2 m

Observació

L'informe es va fer fa 42 minuts, a les 21:20 UTC
Vent 4 kt del Nord/Nord-Est, variant entre Nord/Nord-Oest i Nord-Est
Temperatura 24°C
Humitat 69%
Pressió 1017 hPa
Visibilitat 10 km o més
sense núvols per sota de 1500 mi sense presència de cumulonimbus.

METAR: LIMJ 242120Z 02004KT 340V050 CAVOK 24/18 Q1017

Hora: 00:02 (22:02 UTC)

Pronòstic

L'informe es va fer fa 5 hores i 2 minuts, a les 17:00 UTC
Pronòstic vàlid del 24 a les 18 UTC al 25 a les 18 UTC
Vent 8 kt del Nord-Est
Visibilitat 10 km o més
Núvols disperses a una alçada de 4000 ft

TAF: LIMJ 241700Z 2418/2518 04008KT 9999 SCT040

Observacions i pronòstics meteorològics de més de 4000 aeroports (METAR i TAF).

Les estacions disponibles són els punts grocs i vermells al mapa.

Posi el ratolí al punt desitjat per veure el nom de l'estació.

Feu clic per veure les observacions i els pronòstics meteorològics.

Per canviar el mapa: feu clic els botons verds amb una creu de color negre per apropar; al botó verd amb un guió per allunyar la imatge; o en les fletxes verdes per a mapes adjacents.


METAR-TAF: